Time;durP1;ratioP1;P1;durP2;ratioP2;P2;SDS_P1;SDS_P2;PMS_P1;PMS_P2;Temp;Humidity;BMP_temperature;BMP_pressure;BME280_temperature;BME280_humidity;BME280_pressure;Samples;Min_cycle;Max_cycle;Signal;HPM_P1;HPM_P2
2022/08/30 00:01:22;;;;;;;10.03;2.30;;;;;;;22.54;40.40;100780.72;4909102;29;20219;-65
2022/08/30 00:03:49;;;;;;;7.00;2.40;;;;;;;22.44;40.49;100775.78;4908588;29;20213;-65
2022/08/30 00:06:19;;;;;;;7.87;2.10;;;;;;;22.45;40.53;100784.72;4911915;29;20217;-65
2022/08/30 00:08:48;;;;;;;4.37;2.07;;;;;;;22.47;40.55;100779.94;4915106;29;20399;-65
2022/08/30 00:11:20;;;;;;;10.07;2.50;;;;;;;22.43;40.42;100773.28;4911150;29;20684;-65
2022/08/30 00:13:50;;;;;;;6.97;2.17;;;;;;;22.39;40.65;100775.63;4917852;29;20296;-65
2022/08/30 00:16:20;;;;;;;6.63;1.87;;;;;;;22.35;40.57;100778.97;4905964;29;20566;-65
2022/08/30 00:18:48;;;;;;;8.27;2.50;;;;;;;22.30;40.69;100778.81;4913076;29;20304;-65
2022/08/30 00:21:16;;;;;;;6.23;2.17;;;;;;;22.25;41.03;100778.63;4910522;29;20217;-66
2022/08/30 00:23:45;;;;;;;7.60;2.20;;;;;;;22.26;40.64;100781.09;4906790;29;20581;-65
2022/08/30 00:26:12;;;;;;;6.77;2.10;;;;;;;22.26;40.65;100774.88;4910669;29;20221;-65
2022/08/30 00:28:40;;;;;;;5.67;1.77;;;;;;;22.29;40.74;100771.75;4910585;29;20240;-65
2022/08/30 00:31:09;;;;;;;9.03;2.30;;;;;;;22.24;40.93;100777.81;4910938;29;20653;-65
2022/08/30 00:33:40;;;;;;;10.30;2.20;;;;;;;22.22;40.93;100774.50;4912070;29;20209;-65
2022/08/30 00:36:07;;;;;;;7.63;2.47;;;;;;;22.26;41.16;100782.97;4910480;29;20312;-65
2022/08/30 00:38:35;;;;;;;5.63;2.00;;;;;;;22.25;40.91;100779.47;4915251;29;20684;-65
2022/08/30 00:41:04;;;;;;;7.37;2.33;;;;;;;22.24;40.99;100779.69;4914449;29;20236;-65
2022/08/30 00:43:34;;;;;;;5.73;2.23;;;;;;;22.27;40.98;100784.63;4911679;29;20240;-65
2022/08/30 00:46:06;;;;;;;9.23;2.43;;;;;;;22.26;40.99;100783.78;4911628;29;20249;-65
2022/08/30 00:48:37;;;;;;;5.77;2.00;;;;;;;22.25;41.12;100784.88;4910964;29;20686;-65
2022/08/30 00:51:10;;;;;;;7.90;2.67;;;;;;;22.26;40.74;100782.97;4912869;29;20251;-65
2022/08/30 00:53:42;;;;;;;6.13;2.20;;;;;;;22.26;40.92;100791.06;4913327;29;20204;-65
2022/08/30 00:56:11;;;;;;;3.93;1.93;;;;;;;22.24;40.91;100791.31;4911385;29;20255;-65
2022/08/30 00:58:44;;;;;;;7.10;2.33;;;;;;;22.15;41.35;100789.91;4912062;29;20241;-65
2022/08/30 01:01:12;;;;;;;5.17;2.03;;;;;;;22.08;41.47;100795.31;4912524;29;20312;-65
2022/08/30 01:03:42;;;;;;;6.00;2.27;;;;;;;22.00;41.50;100792.88;4909271;29;20307;-65
2022/08/30 01:06:10;;;;;;;8.40;2.40;;;;;;;21.97;41.45;100793.31;4906313;29;20707;-65
2022/08/30 01:08:38;;;;;;;8.77;2.00;;;;;;;21.95;41.54;100794.53;4908771;29;20586;-65
2022/08/30 01:11:07;;;;;;;6.33;2.10;;;;;;;21.93;41.40;100797.44;4907703;29;20212;-65
2022/08/30 01:13:36;;;;;;;7.50;2.30;;;;;;;21.91;41.77;100796.81;4909201;29;20223;-66
2022/08/30 01:16:04;;;;;;;6.80;2.27;;;;;;;21.92;41.69;100790.38;4911300;29;20217;-65
2022/08/30 01:18:33;;;;;;;7.97;1.93;;;;;;;21.94;41.64;100787.47;4912660;29;20230;-65
2022/08/30 01:21:06;;;;;;;5.73;2.20;;;;;;;21.84;41.56;100785.22;4909172;29;20213;-65
2022/08/30 01:23:37;;;;;;;6.83;2.20;;;;;;;21.85;41.73;100786.06;4908060;29;20240;-65
2022/08/30 01:26:06;;;;;;;7.60;2.47;;;;;;;21.81;42.15;100787.56;4909225;29;20220;-65
2022/08/30 01:28:35;;;;;;;6.73;2.30;;;;;;;21.84;42.07;100785.22;4916140;29;20213;-65
2022/08/30 01:31:03;;;;;;;6.53;2.13;;;;;;;21.81;42.14;100785.69;4910069;29;20204;-66
2022/08/30 01:33:31;;;;;;;3.73;1.87;;;;;;;21.81;41.82;100779.44;4907736;29;20213;-66
2022/08/30 01:36:01;;;;;;;6.23;2.33;;;;;;;21.79;42.10;100787.75;4907327;29;20495;-65
2022/08/30 01:38:34;;;;;;;6.30;2.30;;;;;;;21.75;42.09;100787.34;4912838;29;20233;-66
2022/08/30 01:41:10;;;;;;;4.20;2.13;;;;;;;21.73;41.79;100786.72;4912109;29;20672;-66
2022/08/30 01:43:38;;;;;;;5.63;2.07;;;;;;;21.75;41.82;100783.81;4910330;29;20227;-65
2022/08/30 01:46:05;;;;;;;10.60;2.30;;;;;;;21.70;42.34;100789.03;4909066;29;20205;-65
2022/08/30 01:48:43;;;;;;;7.50;2.13;;;;;;;21.70;42.16;100780.94;5129091;27;22049;-65
2022/08/30 01:51:22;;;;;;;4.33;2.17;;;;;;;21.75;41.81;100786.50;5121135;28;20635;-65
2022/08/30 01:53:50;;;;;;;10.07;2.67;;;;;;;21.77;42.13;100787.13;5120348;28;20232;-65
2022/08/30 01:56:18;;;;;;;7.20;2.37;;;;;;;21.73;42.07;100785.88;5116938;28;20216;-65
2022/08/30 01:58:46;;;;;;;5.40;2.13;;;;;;;21.73;41.75;100785.88;5118255;28;20681;-65
2022/08/30 02:01:18;;;;;;;4.20;2.10;;;;;;;21.70;42.18;100775.53;5117575;28;20206;-65
2022/08/30 02:03:48;;;;;;;4.97;2.00;;;;;;;21.67;42.10;100786.75;5116643;28;20751;-65
2022/08/30 02:06:18;;;;;;;5.77;2.00;;;;;;;21.60;42.18;100789.47;5118191;28;20197;-65
2022/08/30 02:08:46;;;;;;;10.63;2.50;;;;;;;21.57;42.34;100786.38;5117956;28;20221;-66
2022/08/30 02:11:14;;;;;;;6.73;2.03;;;;;;;21.53;42.20;100785.16;5119910;28;20201;-65
2022/08/30 02:13:43;;;;;;;5.27;2.23;;;;;;;21.50;42.31;100777.47;5116109;28;20205;-65
2022/08/30 02:16:14;;;;;;;9.50;2.53;;;;;;;21.47;42.51;100785.97;5116718;28;20206;-65
2022/08/30 02:18:42;;;;;;;5.83;2.30;;;;;;;21.46;42.54;100785.16;5119444;28;20205;-65
2022/08/30 02:21:12;;;;;;;6.03;2.40;;;;;;;21.47;42.63;100786.81;5121768;28;20233;-65
2022/08/30 02:23:41;;;;;;;6.97;2.43;;;;;;;21.46;42.63;100785.16;5119203;28;20289;-65
2022/08/30 02:26:09;;;;;;;9.27;2.23;;;;;;;21.48;42.12;100782.25;5115785;28;20205;-65
2022/08/30 02:28:37;;;;;;;7.20;2.10;;;;;;;21.42;42.56;100772.31;5117313;28;20246;-65
2022/08/30 02:31:16;;;;;;;8.57;1.97;;;;;;;21.35;42.85;100781.25;5115178;28;20233;-65
2022/08/30 02:33:48;;;;;;;7.30;2.20;;;;;;;21.34;42.48;100776.88;5114196;28;20202;-65
2022/08/30 02:36:19;;;;;;;6.70;2.67;;;;;;;21.38;42.32;100775.41;5115079;28;20237;-65
2022/08/30 02:38:47;;;;;;;8.37;2.30;;;;;;;21.39;42.57;100770.84;5118479;28;20193;-65
2022/08/30 02:41:16;;;;;;;6.37;2.10;;;;;;;21.33;42.41;100769.84;5116216;28;20776;-65
2022/08/30 02:43:46;;;;;;;5.80;2.37;;;;;;;21.33;42.22;100763.63;5117440;28;20206;-65
2022/08/30 02:46:14;;;;;;;8.30;1.97;;;;;;;21.34;42.51;100759.88;5111499;28;20253;-65
2022/08/30 02:48:42;;;;;;;9.07;2.60;;;;;;;21.29;42.79;100757.81;5117219;28;20324;-65
2022/08/30 02:51:12;;;;;;;7.53;2.30;;;;;;;21.25;42.56;100751.19;5116605;28;20205;-65
2022/08/30 02:53:43;;;;;;;10.00;2.50;;;;;;;21.22;42.71;100757.00;5117962;28;20206;-65
2022/08/30 02:56:12;;;;;;;8.57;2.37;;;;;;;21.21;42.78;100749.94;5113840;27;20654;-65
2022/08/30 02:58:41;;;;;;;7.10;2.13;;;;;;;21.26;42.53;100766.34;5111077;28;20205;-64
2022/08/30 03:01:11;;;;;;;5.67;2.07;;;;;;;21.24;42.72;100760.31;5104821;27;20198;-65
2022/08/30 03:03:39;;;;;;;4.07;1.70;;;;;;;21.19;42.79;100748.50;5106075;28;20256;-65
2022/08/30 03:06:07;;;;;;;6.30;2.70;;;;;;;21.18;42.63;100753.06;5101566;28;20248;-65
2022/08/30 03:08:35;;;;;;;9.40;2.60;;;;;;;21.20;42.62;100755.53;5101346;28;20230;-65
2022/08/30 03:11:04;;;;;;;11.13;2.20;;;;;;;21.24;42.27;100752.22;5104311;28;20202;-65
2022/08/30 03:13:32;;;;;;;6.80;2.13;;;;;;;21.23;42.56;100747.03;5102345;28;20210;-65
2022/08/30 03:16:00;;;;;;;5.60;2.30;;;;;;;21.16;42.75;100752.41;5100806;28;20206;-64
2022/08/30 03:18:28;;;;;;;7.27;2.53;;;;;;;21.15;42.51;100753.44;5103340;28;20203;-64
2022/08/30 03:20:55;;;;;;;5.97;2.10;;;;;;;21.13;42.89;100752.00;5102477;28;20572;-65
2022/08/30 03:23:23;;;;;;;8.33;2.57;;;;;;;21.15;42.54;100758.00;5102375;28;20233;-65
2022/08/30 03:25:52;;;;;;;7.37;2.50;;;;;;;21.13;42.76;100754.69;5101127;28;20294;-65
2022/08/30 03:28:21;;;;;;;6.47;2.80;;;;;;;21.06;43.00;100745.78;5099669;28;20318;-65
2022/08/30 03:30:49;;;;;;;5.57;2.60;;;;;;;21.06;42.78;100757.41;5101309;28;20202;-65
2022/08/30 03:33:17;;;;;;;5.37;2.27;;;;;;;21.06;42.68;100751.19;5097252;28;20856;-65
2022/08/30 03:35:49;;;;;;;11.20;2.40;;;;;;;21.09;43.00;100746.22;5100803;28;20308;-65
2022/08/30 03:38:17;;;;;;;4.17;2.13;;;;;;;21.06;42.79;100745.78;5096159;28;20208;-65
2022/08/30 03:40:44;;;;;;;4.57;2.03;;;;;;;21.02;42.73;100745.41;5094060;28;20211;-65
2022/08/30 03:43:13;;;;;;;7.77;2.10;;;;;;;21.01;43.04;100743.75;5096119;28;20682;-65
2022/08/30 03:45:43;;;;;;;10.73;2.47;;;;;;;21.01;42.59;100743.75;5096058;28;20891;-65
2022/08/30 03:48:11;;;;;;;10.07;1.97;;;;;;;21.02;42.95;100745.41;5091851;28;20715;-65
2022/08/30 03:50:40;;;;;;;7.67;2.10;;;;;;;20.98;43.02;100749.53;5095906;28;20256;-65
2022/08/30 03:53:07;;;;;;;4.93;1.90;;;;;;;20.93;42.81;100746.66;5097068;27;20221;-64
2022/08/30 03:55:35;;;;;;;4.93;2.33;;;;;;;20.88;42.84;100743.75;5098655;28;20210;-64
2022/08/30 03:58:03;;;;;;;6.30;2.33;;;;;;;20.85;43.01;100747.66;5100412;28;20229;-64
2022/08/30 04:00:31;;;;;;;6.60;1.70;;;;;;;20.82;42.99;100740.03;5099629;28;20623;-65
2022/08/30 04:03:00;;;;;;;7.53;2.40;;;;;;;20.81;43.26;100753.69;5104371;28;20212;-64
2022/08/30 04:05:28;;;;;;;8.53;3.20;;;;;;;20.79;42.99;100742.28;5094870;28;20206;-64
2022/08/30 04:07:55;;;;;;;8.37;2.87;;;;;;;20.76;43.26;100753.50;5095828;28;20246;-64
2022/08/30 04:10:24;;;;;;;6.80;2.40;;;;;;;20.76;43.38;100750.81;5094768;28;20203;-64
2022/08/30 04:12:51;;;;;;;7.43;2.17;;;;;;;20.77;43.07;100755.13;5093997;28;20210;-65
2022/08/30 04:15:20;;;;;;;7.07;2.33;;;;;;;20.72;43.24;100749.56;5093524;28;20207;-65
2022/08/30 04:17:48;;;;;;;4.27;2.17;;;;;;;20.74;43.32;100747.50;5101488;28;21006;-65
2022/08/30 04:20:19;;;;;;;6.23;2.30;;;;;;;20.75;43.21;100749.16;5099280;28;20206;-65
2022/08/30 04:23:07;;;;;;;6.73;2.90;;;;;;;20.72;43.68;100763.03;5088882;28;20613;-65
2022/08/30 04:25:36;;;;;;;7.23;3.13;;;;;;;20.75;43.52;100762.63;5097803;28;20214;-65
2022/08/30 04:28:05;;;;;;;7.50;2.63;;;;;;;20.74;43.27;100756.41;5101292;27;20670;-65
2022/08/30 04:30:33;;;;;;;7.97;2.50;;;;;;;20.71;43.73;100764.06;5101315;28;20249;-65
2022/08/30 04:33:01;;;;;;;4.33;1.73;;;;;;;20.71;43.48;100761.38;5099615;28;20209;-65
2022/08/30 04:35:30;;;;;;;7.33;2.27;;;;;;;20.70;43.62;100746.22;5102520;28;20202;-65
2022/08/30 04:37:58;;;;;;;3.57;2.03;;;;;;;20.71;43.71;100750.59;5100388;28;20201;-65
2022/08/30 04:40:25;;;;;;;6.17;2.23;;;;;;;20.72;43.63;100755.78;5096007;28;20211;-65
2022/08/30 04:42:55;;;;;;;6.77;2.27;;;;;;;20.64;44.12;100762.19;5093845;28;20210;-65
2022/08/30 04:45:23;;;;;;;4.87;1.83;;;;;;;20.60;43.78;100758.25;5102868;28;20297;-65
2022/08/30 04:47:50;;;;;;;6.90;2.83;;;;;;;20.53;44.16;100761.97;5098613;28;20234;-66
2022/08/30 04:50:20;;;;;;;4.57;2.10;;;;;;;20.42;44.58;100768.78;5094911;28;20233;-65
2022/08/30 04:52:49;;;;;;;5.87;2.33;;;;;;;20.45;44.75;100776.47;5099891;28;20211;-65
2022/08/30 04:55:17;;;;;;;8.73;2.00;;;;;;;20.42;44.51;100778.75;5094990;28;20210;-65
2022/08/30 04:57:47;;;;;;;6.23;2.20;;;;;;;20.41;44.66;100777.91;5096277;28;20630;-64
2022/08/30 05:00:15;;;;;;;15.70;2.77;;;;;;;20.41;44.95;100777.06;5094462;28;20202;-64
2022/08/30 05:02:43;;;;;;;7.10;2.23;;;;;;;20.44;45.00;100769.44;5102590;28;20197;-65
2022/08/30 05:07:58;;;;;;;6.60;2.80;;;;;;;20.49;44.63;100777.72;5095614;28;20198;-65
2022/08/30 05:10:26;;;;;;;7.53;2.50;;;;;;;20.49;44.73;100776.91;5097005;28;20212;-65
2022/08/30 05:12:54;;;;;;;6.27;2.20;;;;;;;20.50;44.91;100789.31;5097100;28;20209;-65
2022/08/30 05:15:22;;;;;;;6.50;2.27;;;;;;;20.54;44.80;100785.19;5096764;28;20222;-65
2022/08/30 05:17:50;;;;;;;6.30;2.47;;;;;;;20.56;44.62;100794.75;5098603;28;20199;-65
2022/08/30 05:20:17;;;;;;;6.03;2.03;;;;;;;20.53;44.75;100795.13;5093820;28;20211;-65
2022/08/30 05:22:48;;;;;;;4.93;2.07;;;;;;;20.56;44.70;100789.34;5100007;28;20261;-65
2022/08/30 05:25:23;;;;;;;5.93;2.00;;;;;;;20.58;44.76;100797.22;5096923;28;20240;-65
2022/08/30 05:27:52;;;;;;;7.90;2.20;;;;;;;20.60;45.10;100793.28;5096749;28;20305;-65
2022/08/30 05:30:21;;;;;;;6.03;2.80;;;;;;;20.58;44.98;100797.22;5093930;28;20221;-65
2022/08/30 05:32:49;;;;;;;4.30;2.33;;;;;;;20.64;44.88;100804.47;5100511;28;20206;-64
2022/08/30 05:35:18;;;;;;;5.67;2.20;;;;;;;20.64;45.11;100809.88;5098200;28;20224;-66
2022/08/30 05:37:52;;;;;;;5.97;2.33;;;;;;;20.63;45.21;100808.22;5101072;28;20205;-65
2022/08/30 05:40:22;;;;;;;8.80;2.60;;;;;;;20.58;45.23;100808.00;5095875;28;20202;-64
2022/08/30 05:42:50;;;;;;;6.30;2.50;;;;;;;20.57;45.34;100800.97;5097414;28;20289;-64
2022/08/30 05:45:18;;;;;;;9.27;2.93;;;;;;;20.56;45.50;100794.75;5100795;28;20203;-64
2022/08/30 05:47:46;;;;;;;7.37;2.60;;;;;;;20.60;45.80;100801.34;5091234;28;20257;-64
2022/08/30 05:50:14;;;;;;;4.37;2.00;;;;;;;20.62;45.55;100802.00;5097673;28;20230;-64
2022/08/30 05:52:43;;;;;;;6.30;2.50;;;;;;;20.63;45.56;100800.97;5099116;28;20211;-65
2022/08/30 05:55:12;;;;;;;8.43;2.80;;;;;;;20.62;45.75;100803.84;5096300;28;20202;-65
2022/08/30 05:57:41;;;;;;;5.87;2.20;;;;;;;20.67;45.95;100800.56;5096423;28;20230;-65
2022/08/30 06:00:12;;;;;;;8.07;2.60;;;;;;;20.69;45.63;100807.38;5097937;28;20252;-65
2022/08/30 06:02:40;;;;;;;7.70;2.40;;;;;;;20.69;45.65;100809.25;5096199;28;20208;-65
2022/08/30 06:05:09;;;;;;;7.23;2.37;;;;;;;20.74;45.58;100806.78;5095001;28;20238;-65
2022/08/30 06:07:41;;;;;;;7.03;2.53;;;;;;;20.81;45.42;100799.50;5099814;28;20206;-65
2022/08/30 06:10:11;;;;;;;6.80;2.30;;;;;;;20.83;45.60;100800.16;5100978;28;20850;-65
2022/08/30 06:12:38;;;;;;;8.73;2.63;;;;;;;20.87;45.75;100802.22;5100534;28;20207;-65
2022/08/30 06:15:09;;;;;;;8.70;2.47;;;;;;;20.89;45.60;100799.31;5094795;28;20202;-65
2022/08/30 06:17:38;;;;;;;9.90;2.47;;;;;;;20.94;45.85;100803.03;5096243;28;20224;-65
2022/08/30 06:20:07;;;;;;;6.10;2.30;;;;;;;20.98;45.35;100800.75;5094636;28;20412;-65
2022/08/30 06:22:37;;;;;;;6.77;2.43;;;;;;;20.99;45.73;100802.41;5097854;28;20206;-65
2022/08/30 06:25:06;;;;;;;9.57;2.60;;;;;;;20.99;45.87;100797.03;5097334;28;20261;-65
2022/08/30 06:27:33;;;;;;;9.57;2.40;;;;;;;21.04;45.64;100797.22;5096808;28;20238;-64
2022/08/30 06:30:01;;;;;;;8.67;2.30;;;;;;;21.04;45.64;100799.91;5095259;28;20253;-64
2022/08/30 06:32:30;;;;;;;6.40;2.30;;;;;;;21.07;45.87;100799.50;5096781;28;20214;-64
2022/08/30 06:34:58;;;;;;;12.73;2.87;;;;;;;21.09;45.45;100805.53;5095242;27;20209;-65
2022/08/30 06:37:26;;;;;;;9.63;2.60;;;;;;;21.11;45.56;100800.72;5096365;28;20225;-65
2022/08/30 06:39:57;;;;;;;7.57;2.47;;;;;;;21.10;46.00;100796.41;5096729;28;20664;-65
2022/08/30 06:42:30;;;;;;;6.60;2.50;;;;;;;21.11;45.64;100795.34;5101823;28;20211;-64
2022/08/30 06:44:58;;;;;;;7.70;2.53;;;;;;;21.13;46.07;100795.97;5100130;27;20234;-65
2022/08/30 06:47:26;;;;;;;6.87;2.50;;;;;;;21.15;46.16;100799.28;5100306;28;20237;-65
2022/08/30 06:49:55;;;;;;;10.03;3.10;;;;;;;21.16;46.10;100800.97;5088461;27;20218;-62
2022/08/30 06:52:23;;;;;;;8.20;2.37;;;;;;;21.19;46.79;100807.84;5095905;28;20213;-60
2022/08/30 06:54:50;;;;;;;10.63;2.67;;;;;;;21.18;46.90;100809.69;5098654;28;20206;-61
2022/08/30 06:57:18;;;;;;;10.67;2.37;;;;;;;21.32;46.64;100811.34;5094253;28;20302;-61
2022/08/30 06:59:46;;;;;;;6.47;2.63;;;;;;;21.37;46.51;100805.31;5102494;27;20271;-61
2022/08/30 07:02:14;;;;;;;11.37;2.50;;;;;;;21.45;46.50;100812.34;5099974;28;20640;-64
2022/08/30 07:04:42;;;;;;;7.37;2.53;;;;;;;21.53;46.20;100809.44;5099835;28;20209;-63
2022/08/30 07:07:11;;;;;;;7.27;2.50;;;;;;;21.61;46.09;100825.41;5101798;28;20202;-64
2022/08/30 07:09:42;;;;;;;6.37;3.00;;;;;;;21.66;45.85;100823.69;5100943;28;20230;-64
2022/08/30 07:12:10;;;;;;;10.73;2.73;;;;;;;21.69;45.69;100822.47;5097635;28;22186;-64
2022/08/30 07:14:38;;;;;;;13.47;3.20;;;;;;;21.72;45.83;100820.16;5098799;28;20209;-64
2022/08/30 07:19:50;;;;;;;8.60;3.07;;;;;;;21.77;45.71;100819.53;5097436;28;20761;-64
2022/08/30 07:22:19;;;;;;;12.80;2.87;;;;;;;21.82;45.89;100821.56;5098421;28;20219;-63
2022/08/30 07:24:48;;;;;;;8.67;3.27;;;;;;;21.84;45.69;100820.31;5100189;28;20210;-63
2022/08/30 07:27:16;;;;;;;11.00;2.53;;;;;;;21.90;45.89;100824.88;5096382;28;20224;-64
2022/08/30 07:29:44;;;;;;;5.77;2.60;;;;;;;21.94;46.26;100828.81;5098706;28;20981;-64
2022/08/30 07:32:11;;;;;;;9.27;2.40;;;;;;;22.00;46.02;100827.97;5099013;28;20213;-63
2022/08/30 07:34:40;;;;;;;10.47;3.23;;;;;;;22.01;45.83;100826.09;5099064;28;20207;-63
2022/08/30 07:37:08;;;;;;;12.03;2.77;;;;;;;22.05;45.96;100830.88;5101891;27;20229;-64
2022/08/30 07:39:37;;;;;;;8.73;3.00;;;;;;;22.12;45.85;100828.97;5098855;27;20206;-64
2022/08/30 07:42:11;;;;;;;6.33;2.40;;;;;;;22.20;45.74;100829.75;5099066;27;20599;-64
2022/08/30 07:44:38;;;;;;;7.27;2.40;;;;;;;22.29;45.00;100828.47;5097343;27;20224;-63
2022/08/30 07:47:06;;;;;;;9.03;2.63;;;;;;;22.37;45.18;100830.91;5097662;28;20722;-64
2022/08/30 07:49:34;;;;;;;9.53;2.60;;;;;;;22.46;45.36;100830.44;5097698;27;20667;-64
2022/08/30 07:52:03;;;;;;;11.17;2.60;;;;;;;22.53;44.79;100836.63;5099239;27;20210;-63
2022/08/30 07:54:30;;;;;;;7.60;2.80;;;;;;;22.62;44.81;100829.09;5093202;28;20225;-63
2022/08/30 07:56:59;;;;;;;9.70;2.80;;;;;;;22.72;44.71;100834.00;5098145;28;20203;-63
2022/08/30 07:59:27;;;;;;;6.00;2.97;;;;;;;22.78;44.89;100825.88;5093712;28;20211;-63
2022/08/30 08:02:00;;;;;;;9.03;2.83;;;;;;;22.87;44.43;100829.97;5099538;28;20663;-64
2022/08/30 08:04:28;;;;;;;9.67;3.73;;;;;;;22.96;44.47;100827.00;5096799;27;20568;-63
2022/08/30 08:06:56;;;;;;;7.82;2.60;;;;;;;23.08;44.24;100833.34;5097090;27;20207;-63
2022/08/30 08:09:24;;;;;;;7.03;2.67;;;;;;;23.13;44.06;100826.22;5094482;28;20267;-64
2022/08/30 08:11:52;;;;;;;9.35;2.95;;;;;;;23.22;43.85;100830.31;5097256;28;20384;-64
2022/08/30 08:14:22;;;;;;;9.35;3.05;;;;;;;23.34;44.75;100816.88;5098641;28;20245;-65
2022/08/30 08:16:50;;;;;;;15.57;3.55;;;;;;;23.44;44.48;100817.19;5097633;28;20202;-64
2022/08/30 08:19:18;;;;;;;8.23;3.20;;;;;;;23.56;44.07;100823.56;5100737;28;20301;-63
2022/08/30 08:21:46;;;;;;;13.82;3.67;;;;;;;23.67;44.19;100823.84;5100531;28;20224;-63
2022/08/30 08:24:26;;;;;;;10.73;2.45;;;;;;;23.79;43.55;100822.88;5100608;28;20214;-64
2022/08/30 08:26:54;;;;;;;11.20;3.25;;;;;;;23.88;44.01;100823.41;5095787;28;20273;-64
2022/08/30 08:29:25;;;;;;;11.77;2.90;;;;;;;24.07;43.26;100824.22;5096024;27;20202;-64
2022/08/30 08:31:53;;;;;;;13.30;3.03;;;;;;;24.20;43.25;100827.56;5094171;28;20214;-64
2022/08/30 08:34:22;;;;;;;10.48;2.92;;;;;;;24.30;43.34;100822.47;5093967;28;20523;-63
2022/08/30 08:36:50;;;;;;;11.63;2.92;;;;;;;24.38;42.84;100824.84;5093574;28;20230;-62
2022/08/30 08:39:18;;;;;;;10.68;3.00;;;;;;;24.48;42.61;100828.88;5091413;28;20202;-63
2022/08/30 08:41:55;;;;;;;13.50;3.72;;;;;;;24.55;42.67;100826.91;5098920;28;20551;-63
2022/08/30 08:45:01;;;;;;;9.40;3.10;;;;;;;24.61;42.55;100828.69;5092690;28;20294;-63
2022/08/30 08:47:43;;;;;;;9.60;2.88;;;;;;;24.72;42.53;100817.03;5092293;28;20241;-64
2022/08/30 08:50:14;;;;;;;12.70;3.25;;;;;;;24.84;42.16;100817.91;5095955;28;20198;-63
2022/08/30 08:55:46;;;;;;;10.00;3.10;;;;;;;25.19;41.27;100814.41;5100027;28;20241;-63
2022/08/30 08:58:22;;;;;;;9.15;2.70;;;;;;;25.36;40.58;100809.94;5096237;27;20609;-64
2022/08/30 09:00:55;;;;;;;9.98;2.85;;;;;;;25.46;40.72;100805.56;5099523;27;20201;-64
2022/08/30 09:03:25;;;;;;;9.63;3.13;;;;;;;25.67;40.40;100812.31;5098860;27;20277;-63
2022/08/30 09:05:53;;;;;;;10.05;2.58;;;;;;;25.82;39.65;100809.06;5099075;28;20561;-63
2022/08/30 09:08:23;;;;;;;6.80;2.50;;;;;;;26.01;39.35;100807.84;5096247;28;20217;-64
2022/08/30 09:10:57;;;;;;;6.93;2.85;;;;;;;26.13;39.25;100813.22;5100521;28;20752;-62
2022/08/30 09:13:26;;;;;;;6.32;2.53;;;;;;;26.24;39.07;100809.63;5099299;28;20269;-63
2022/08/30 09:15:58;;;;;;;8.43;2.40;;;;;;;26.36;38.51;100806.91;5095335;27;20226;-63
2022/08/30 09:18:44;;;;;;;8.85;3.22;;;;;;;26.55;38.49;100808.34;5095489;28;20294;-64
2022/08/30 09:21:23;;;;;;;9.20;3.20;;;;;;;26.75;37.84;100813.28;5098096;28;20206;-65
2022/08/30 09:23:59;;;;;;;6.70;2.65;;;;;;;26.88;37.38;100810.25;5093802;28;20288;-64
2022/08/30 09:26:30;;;;;;;8.48;3.20;;;;;;;26.89;37.28;100806.47;5094414;28;20209;-67
2022/08/30 09:29:18;;;;;;;27.60;4.53;;;;;;;26.93;37.58;100794.84;5091839;28;20666;-64
2022/08/30 09:31:52;;;;;;;13.90;2.92;;;;;;;27.09;37.04;100797.84;5096267;28;20690;-65
2022/08/30 09:34:43;;;;;;;8.38;2.25;;;;;;;27.21;36.57;100793.94;5095244;27;20206;-65
2022/08/30 09:37:25;;;;;;;5.78;2.67;;;;;;;27.47;36.42;100783.38;5094775;28;20641;-65
2022/08/30 09:39:53;;;;;;;7.57;2.53;;;;;;;27.54;36.26;100779.44;5097404;28;20251;-65
2022/08/30 09:42:24;;;;;;;6.18;2.88;;;;;;;27.56;35.97;100787.34;5091331;28;20210;-66
2022/08/30 09:45:08;;;;;;;9.85;2.67;;;;;;;27.35;36.15;100799.88;5094428;28;20404;-65
2022/08/30 09:47:40;;;;;;;7.85;2.80;;;;;;;27.18;36.48;100788.16;5094933;28;20592;-65
2022/08/30 09:50:12;;;;;;;11.05;2.75;;;;;;;27.13;36.73;100783.47;5096967;28;20210;-62
2022/08/30 09:52:47;;;;;;;9.65;2.72;;;;;;;27.10;36.86;100781.22;5093574;28;20227;-64
2022/08/30 09:55:40;;;;;;;7.43;2.97;;;;;;;27.03;37.36;100782.47;5103448;28;20893;-64
2022/08/30 09:58:17;;;;;;;4.85;2.50;;;;;;;26.98;37.34;100775.09;5095166;28;20202;-64
2022/08/30 10:00:51;;;;;;;5.57;2.50;;;;;;;27.20;36.79;100767.78;5092919;28;20209;-65
2022/08/30 10:03:27;;;;;;;5.22;2.42;;;;;;;27.34;36.19;100757.38;5095020;28;20349;-65
2022/08/30 10:06:15;;;;;;;8.02;2.72;;;;;;;27.33;36.60;100758.44;5093717;28;20301;-65
2022/08/30 10:08:52;;;;;;;8.43;2.78;;;;;;;27.29;36.89;100755.38;5099417;28;20207;-65
2022/08/30 10:11:27;;;;;;;9.85;2.80;;;;;;;27.27;36.84;100754.81;5101102;28;20228;-65
2022/08/30 10:14:09;;;;;;;10.82;3.25;;;;;;;27.35;36.84;100751.66;5098907;28;20339;-65
2022/08/30 10:16:49;;;;;;;7.88;2.72;;;;;;;27.24;36.85;100755.31;5098700;28;20205;-62
2022/08/30 10:19:38;;;;;;;9.60;3.28;;;;;;;27.15;37.10;100748.66;5099348;27;20283;-63
2022/08/30 10:22:13;;;;;;;8.30;3.00;;;;;;;27.34;36.66;100746.47;5098623;28;20289;-66
2022/08/30 10:24:45;;;;;;;7.43;3.08;;;;;;;27.44;36.32;100745.78;5100424;27;20201;-64
2022/08/30 10:27:17;;;;;;;10.50;3.10;;;;;;;27.31;36.96;100736.91;5100745;28;20682;-64
2022/08/30 10:29:49;;;;;;;6.30;3.28;;;;;;;27.19;37.10;100738.91;5094023;27;22065;-63
2022/08/30 10:32:23;;;;;;;7.40;2.60;;;;;;;27.06;37.39;100736.56;5097525;27;20427;-65
2022/08/30 10:34:57;;;;;;;10.27;3.13;;;;;;;27.00;37.43;100739.47;5099822;27;20620;-65
2022/08/30 10:37:28;;;;;;;9.00;3.45;;;;;;;26.90;37.40;100740.09;5096749;28;20317;-65
2022/08/30 10:41:11;;;;;;;6.45;3.50;;;;;;;26.89;37.72;100741.16;5099358;27;20210;-64
2022/08/30 10:42:50;;;;;;;10.85;2.75;;;;;;;26.88;37.48;100736.78;5099349;28;20680;-64
2022/08/30 10:45:18;;;;;;;15.95;3.67;;;;;;;26.90;37.67;100737.38;5095995;28;20294;-65
2022/08/30 10:47:53;;;;;;;8.20;2.80;;;;;;;26.85;37.73;100720.97;5096730;28;20250;-64
2022/08/30 10:50:28;;;;;;;10.48;3.63;;;;;;;26.83;37.38;100725.81;5097867;27;20675;-64
2022/08/30 10:53:03;;;;;;;7.95;2.85;;;;;;;26.89;37.68;100722.94;5098275;28;20667;-64
2022/08/30 10:55:36;;;;;;;14.68;3.30;;;;;;;26.88;37.56;100723.19;5096725;27;20217;-64
2022/08/30 10:58:06;;;;;;;8.30;3.15;;;;;;;26.87;37.43;100730.53;5098515;27;20648;-64
2022/08/30 11:00:45;;;;;;;6.65;2.72;;;;;;;26.86;37.03;100720.72;5098235;28;20514;-64
2022/08/30 11:03:46;;;;;;;9.60;2.92;;;;;;;26.89;37.13;100717.50;5096768;28;20198;-64
2022/08/30 11:06:22;;;;;;;7.18;3.05;;;;;;;26.90;37.14;100721.88;5099867;27;20500;-63
2022/08/30 11:09:06;;;;;;;5.32;2.80;;;;;;;26.95;36.86;100721.13;5102229;27;20585;-64
2022/08/30 11:11:50;;;;;;;8.50;2.80;;;;;;;26.96;37.24;100718.19;5098964;27;20294;-63
2022/08/30 11:14:20;;;;;;;6.80;2.80;;;;;;;27.01;37.09;100713.88;5100000;28;20249;-64
2022/08/30 11:16:54;;;;;;;10.05;3.08;;;;;;;27.02;37.22;100716.34;5098358;27;20214;-66
2022/08/30 11:19:26;;;;;;;8.63;3.03;;;;;;;27.28;36.67;100715.63;5096440;27;20206;-65
2022/08/30 11:22:13;;;;;;;7.57;3.15;;;;;;;28.20;35.31;100705.81;5099595;27;20876;-65
2022/08/30 11:25:05;;;;;;;8.65;3.70;;;;;;;30.97;30.83;100702.50;5101720;27;20198;-64
2022/08/30 11:27:57;;;;;;;8.93;3.25;;;;;;;33.15;28.37;100690.13;5097743;28;20266;-65
2022/08/30 11:30:48;;;;;;;4.85;3.03;;;;;;;34.76;26.22;100696.31;5101250;27;20297;-64
2022/08/30 11:33:42;;;;;;;7.97;2.67;;;;;;;34.72;25.38;100685.06;5097558;27;20231;-64
2022/08/30 11:37:06;;;;;;;5.68;2.97;;;;;;;34.91;25.68;100684.19;5095125;27;20619;-64
2022/08/30 11:39:56;;;;;;;8.55;2.90;;;;;;;34.43;25.86;100673.47;5098358;27;20686;-65
2022/08/30 11:42:43;;;;;;;4.80;2.80;;;;;;;33.49;27.13;100676.25;5097248;27;20693;-66
2022/08/30 11:45:43;;;;;;;8.57;2.83;;;;;;;32.75;27.64;100674.06;5101530;28;20524;-65
2022/08/30 11:48:40;;;;;;;6.07;2.95;;;;;;;32.10;28.34;100681.75;5097186;28;20568;-63
2022/08/30 11:51:52;;;;;;;12.20;2.95;;;;;;;31.18;29.65;100675.09;5098339;28;20201;-63
2022/08/30 11:54:53;;;;;;;12.25;3.03;;;;;;;30.57;30.59;100675.22;5095430;27;20222;-62